createdAt,value
2022-11-30T00:00:08.051Z,100442.72
2022-11-30T00:00:39.532Z,100437.81
2022-11-30T00:01:10.937Z,100442.72
2022-11-30T00:01:42.420Z,100441.59
2022-11-30T00:02:14.028Z,100446.53
2022-11-30T00:02:45.719Z,100439.16
2022-11-30T00:03:17.280Z,100439.44
2022-11-30T00:03:48.785Z,100441.06
2022-11-30T00:04:20.344Z,100443.00
2022-11-30T00:04:51.829Z,100441.09
2022-11-30T00:05:23.243Z,100443.84
2022-11-30T00:05:54.693Z,100443.56
2022-11-30T00:06:26.101Z,100445.22
2022-11-30T00:06:57.469Z,100441.41
2022-11-30T00:07:28.844Z,100447.41
2022-11-30T00:08:00.408Z,100445.19
2022-11-30T00:08:31.851Z,100450.09
2022-11-30T00:09:03.201Z,100447.91
2022-11-30T00:09:34.667Z,100444.63
2022-11-30T00:10:06.085Z,100449.00
2022-11-30T00:10:37.447Z,100443.53
2022-11-30T00:11:08.865Z,100442.72
2022-11-30T00:11:40.232Z,100443.00
2022-11-30T00:12:11.595Z,100441.09
2022-11-30T00:12:43.040Z,100444.34
2022-11-30T00:13:14.348Z,100448.75
2022-11-30T00:13:45.719Z,100447.91
2022-11-30T00:14:17.118Z,100452.81
2022-11-30T00:14:48.820Z,100446.25
2022-11-30T00:15:20.388Z,100453.34
2022-11-30T00:15:51.801Z,100454.22
2022-11-30T00:16:23.294Z,100452.53
2022-11-30T00:16:54.799Z,100449.56
2022-11-30T00:17:26.235Z,100441.63
2022-11-30T00:17:57.661Z,100447.38
2022-11-30T00:18:29.052Z,100446.00
2022-11-30T00:19:00.542Z,100452.28
2022-11-30T00:19:31.975Z,100450.09
2022-11-30T00:20:03.519Z,100446.31
2022-11-30T00:20:34.897Z,100440.03
2022-11-30T00:21:06.246Z,100436.75
2022-11-30T00:21:37.576Z,100443.03
2022-11-30T00:22:08.960Z,100441.94
2022-11-30T00:22:40.449Z,100446.31
2022-11-30T00:23:11.838Z,100440.28
2022-11-30T00:23:43.230Z,100441.91
2022-11-30T00:24:14.649Z,100444.63
2022-11-30T00:24:46.288Z,100440.84
2022-11-30T00:25:17.889Z,100447.69
2022-11-30T00:25:49.290Z,100453.41
2022-11-30T00:26:20.704Z,100440.56
2022-11-30T00:26:52.093Z,100439.19
2022-11-30T00:27:23.528Z,100440.59
2022-11-30T00:27:54.963Z,100441.69
2022-11-30T00:28:26.357Z,100445.81
2022-11-30T00:28:57.760Z,100439.75
2022-11-30T00:29:29.196Z,100446.31
2022-11-30T00:30:00.614Z,100442.47
2022-11-30T00:30:32.128Z,100439.97
2022-11-30T00:31:03.566Z,100446.81
2022-11-30T00:31:34.984Z,100439.69
2022-11-30T00:32:06.389Z,100441.06
2022-11-30T00:32:37.796Z,100445.16
2022-11-30T00:33:09.259Z,100446.81
2022-11-30T00:33:40.742Z,100445.72
2022-11-30T00:34:12.143Z,100446.00
2022-11-30T00:34:43.577Z,100440.28
2022-11-30T00:35:15.064Z,100445.72
2022-11-30T00:35:46.544Z,100445.19
2022-11-30T00:36:18.035Z,100445.72
2022-11-30T00:36:49.526Z,100453.09
2022-11-30T00:37:20.924Z,100438.09
2022-11-30T00:37:52.385Z,100449.59
2022-11-30T00:38:23.828Z,100441.94
2022-11-30T00:38:55.251Z,100443.00
2022-11-30T00:39:30.972Z,100444.09
2022-11-30T00:40:05.350Z,100446.00
2022-11-30T00:40:36.803Z,100440.53
2022-11-30T00:41:08.358Z,100445.16
2022-11-30T00:41:39.732Z,100442.72
2022-11-30T00:42:11.183Z,100438.63
2022-11-30T00:42:42.622Z,100444.63
2022-11-30T00:43:13.991Z,100441.38
2022-11-30T00:43:45.392Z,100443.53
2022-11-30T00:44:16.807Z,100441.63
2022-11-30T00:44:48.328Z,100439.44
2022-11-30T00:45:19.881Z,100442.16
2022-11-30T00:45:51.316Z,100440.25
2022-11-30T00:46:22.936Z,100441.31
2022-11-30T00:46:54.335Z,100443.53
2022-11-30T00:47:25.750Z,100445.44
2022-11-30T00:47:57.219Z,100440.31
2022-11-30T00:48:28.556Z,100443.56
2022-11-30T00:48:59.936Z,100447.13
2022-11-30T00:49:31.351Z,100450.63
2022-11-30T00:50:02.803Z,100446.25
2022-11-30T00:50:34.307Z,100439.94
2022-11-30T00:51:05.766Z,100445.72
2022-11-30T00:51:37.182Z,100444.91
2022-11-30T00:52:08.642Z,100449.00
2022-11-30T00:52:40.011Z,100441.91
2022-11-30T00:53:11.389Z,100447.06
2022-11-30T00:53:42.827Z,100446.81
2022-11-30T00:54:14.233Z,100444.91
2022-11-30T00:54:45.948Z,100448.47
2022-11-30T00:55:17.656Z,100444.09
2022-11-30T00:55:49.186Z,100445.72
2022-11-30T00:56:20.556Z,100445.72
2022-11-30T00:56:51.991Z,100444.34
2022-11-30T00:57:23.363Z,100445.16
2022-11-30T00:57:54.799Z,100442.44
2022-11-30T00:58:26.181Z,100443.53
2022-11-30T00:58:57.563Z,100434.00
2022-11-30T00:59:28.992Z,100439.44
2022-11-30T01:00:00.359Z,100440.78
2022-11-30T01:00:31.837Z,100439.44
2022-11-30T01:01:03.332Z,100435.34
2022-11-30T01:01:34.779Z,100443.53
2022-11-30T01:02:06.324Z,100434.28
2022-11-30T01:02:37.805Z,100438.91
2022-11-30T01:03:09.273Z,100433.19
2022-11-30T01:03:40.664Z,100429.34
2022-11-30T01:04:12.102Z,100437.53
2022-11-30T01:04:43.553Z,100439.97
2022-11-30T01:05:15.125Z,100434.81
2022-11-30T01:05:46.517Z,100437.53
2022-11-30T01:06:17.889Z,100437.53
2022-11-30T01:06:49.305Z,100434.00
2022-11-30T01:07:20.881Z,100435.91
2022-11-30T01:07:52.471Z,100440.31
2022-11-30T01:08:23.938Z,100437.28
2022-11-30T01:08:55.309Z,100442.44
2022-11-30T01:09:26.656Z,100437.81
2022-11-30T01:09:58.103Z,100435.34
2022-11-30T01:10:29.520Z,100438.34
2022-11-30T01:11:01.046Z,100439.16
2022-11-30T01:11:32.438Z,100438.06
2022-11-30T01:12:03.875Z,100442.19
2022-11-30T01:12:35.299Z,100450.38
2022-11-30T01:13:06.727Z,100442.47
2022-11-30T01:13:38.106Z,100441.66
2022-11-30T01:14:09.552Z,100446.53
2022-11-30T01:14:40.905Z,100444.63
2022-11-30T01:15:12.277Z,100443.53
2022-11-30T01:15:43.728Z,100444.34
2022-11-30T01:16:15.241Z,100447.34
2022-11-30T01:16:47.434Z,100443.53
2022-11-30T01:17:20.228Z,100451.72
2022-11-30T01:17:51.794Z,100447.13
2022-11-30T01:18:23.170Z,100451.19
2022-11-30T01:18:54.624Z,100444.66
2022-11-30T01:19:26.086Z,100448.22
2022-11-30T01:19:57.570Z,100438.91
2022-11-30T01:20:28.996Z,100448.75
2022-11-30T01:21:00.455Z,100450.09
2022-11-30T01:21:31.856Z,100449.00
2022-11-30T01:22:03.248Z,100448.19
2022-11-30T01:22:34.622Z,100448.47
2022-11-30T01:23:06.090Z,100457.75
2022-11-30T01:23:37.478Z,100449.84
2022-11-30T01:24:08.936Z,100446.00
2022-11-30T01:24:40.291Z,100450.91
2022-11-30T01:25:11.757Z,100455.28
2022-11-30T01:25:43.180Z,100458.56
2022-11-30T01:26:14.574Z,100453.09
2022-11-30T01:26:45.973Z,100454.22
2022-11-30T01:27:17.429Z,100447.41
2022-11-30T01:27:48.803Z,100446.00
2022-11-30T01:28:20.279Z,100458.56
2022-11-30T01:28:51.659Z,100447.13
2022-11-30T01:29:23.007Z,100457.75
2022-11-30T01:29:54.355Z,100457.75
2022-11-30T01:30:25.805Z,100453.09
2022-11-30T01:30:57.269Z,100456.38
2022-11-30T01:31:28.628Z,100451.72
2022-11-30T01:32:00.047Z,100457.19
2022-11-30T01:32:31.470Z,100459.66
2022-11-30T01:33:02.923Z,100457.19
2022-11-30T01:33:34.494Z,100459.91
2022-11-30T01:34:05.969Z,100459.09
2022-11-30T01:34:37.361Z,100455.84
2022-11-30T01:35:08.758Z,100459.66
2022-11-30T01:35:40.163Z,100459.38
2022-11-30T01:36:11.586Z,100459.94
2022-11-30T01:36:43.015Z,100453.94
2022-11-30T01:37:14.395Z,100453.63
2022-11-30T01:37:45.810Z,100451.19
2022-11-30T01:38:17.214Z,100463.22
2022-11-30T01:38:48.662Z,100455.84
2022-11-30T01:39:20.059Z,100452.53
2022-11-30T01:39:51.520Z,100449.00
2022-11-30T01:40:22.896Z,100452.81
2022-11-30T01:40:54.324Z,100452.03
2022-11-30T01:41:25.866Z,100447.41
2022-11-30T01:41:57.276Z,100449.56
2022-11-30T01:42:28.723Z,100453.34
2022-11-30T01:43:00.114Z,100443.81
2022-11-30T01:43:31.522Z,100455.03
2022-11-30T01:44:02.950Z,100450.69
2022-11-30T01:44:34.361Z,100446.84
2022-11-30T01:45:05.775Z,100449.28
2022-11-30T01:45:37.227Z,100455.59
2022-11-30T01:46:08.644Z,100454.25
2022-11-30T01:46:40.136Z,100456.69
2022-11-30T01:47:11.577Z,100461.91
2022-11-30T01:47:43.059Z,100458.06
2022-11-30T01:48:14.473Z,100456.69
2022-11-30T01:48:45.986Z,100450.16
2022-11-30T01:49:17.365Z,100458.31
2022-11-30T01:49:48.780Z,100459.13
2022-11-30T01:50:20.325Z,100454.78
2022-11-30T01:50:51.788Z,100455.59
2022-11-30T01:51:23.251Z,100455.03
2022-11-30T01:51:54.627Z,100452.28
2022-11-30T01:52:25.968Z,100461.03
2022-11-30T01:52:57.378Z,100458.28
2022-11-30T01:53:28.828Z,100460.75
2022-11-30T01:54:00.197Z,100458.84
2022-11-30T01:54:31.583Z,100457.50
2022-11-30T01:55:02.967Z,100462.13
2022-11-30T01:55:34.410Z,100462.94
2022-11-30T01:56:05.867Z,100461.03
2022-11-30T01:56:37.402Z,100467.88
2022-11-30T01:57:08.930Z,100460.47
2022-11-30T01:57:40.462Z,100462.13
2022-11-30T01:58:11.850Z,100455.84
2022-11-30T01:58:43.283Z,100456.66
2022-11-30T01:59:14.734Z,100457.75
2022-11-30T01:59:46.136Z,100457.50
2022-11-30T02:00:17.534Z,100462.69
2022-11-30T02:00:48.867Z,100459.41
2022-11-30T02:01:20.427Z,100465.94
2022-11-30T02:01:51.897Z,100460.50
2022-11-30T02:02:23.358Z,100464.03
2022-11-30T02:02:54.862Z,100463.47
2022-11-30T02:03:26.312Z,100464.84
2022-11-30T02:03:57.810Z,100466.22
2022-11-30T02:04:29.171Z,100460.50
2022-11-30T02:05:00.562Z,100456.66
2022-11-30T02:05:31.974Z,100466.47
2022-11-30T02:06:03.482Z,100459.91
2022-11-30T02:06:34.899Z,100458.03
2022-11-30T02:07:06.337Z,100459.69
2022-11-30T02:07:37.882Z,100464.31
2022-11-30T02:08:09.462Z,100464.59
2022-11-30T02:08:41.083Z,100467.34
2022-11-30T02:09:12.488Z,100463.78
2022-11-30T02:09:43.912Z,100459.41
2022-11-30T02:10:15.311Z,100466.22
2022-11-30T02:10:46.706Z,100455.06
2022-11-30T02:11:18.121Z,100456.13
2022-11-30T02:11:49.567Z,100455.84
2022-11-30T02:12:21.079Z,100460.19
2022-11-30T02:12:52.617Z,100455.84
2022-11-30T02:13:24.022Z,100457.19
2022-11-30T02:13:55.387Z,100457.47
2022-11-30T02:14:26.812Z,100459.91
2022-11-30T02:14:58.230Z,100456.09
2022-11-30T02:15:29.782Z,100453.91
2022-11-30T02:16:01.280Z,100450.63
2022-11-30T02:16:32.728Z,100456.69
2022-11-30T02:17:04.195Z,100456.69
2022-11-30T02:17:35.594Z,100453.94
2022-11-30T02:18:07.157Z,100454.22
2022-11-30T02:18:38.570Z,100457.47
2022-11-30T02:19:09.951Z,100449.03
2022-11-30T02:19:41.377Z,100457.22
2022-11-30T02:20:12.809Z,100457.50
2022-11-30T02:20:44.295Z,100450.66
2022-11-30T02:21:15.666Z,100450.91
2022-11-30T02:21:47.057Z,100455.88
2022-11-30T02:22:18.578Z,100452.28
2022-11-30T02:22:50.019Z,100455.03
2022-11-30T02:23:21.501Z,100449.59
2022-11-30T02:23:53.018Z,100450.13
2022-11-30T02:24:24.667Z,100445.75
2022-11-30T02:24:56.052Z,100441.13
2022-11-30T02:25:27.433Z,100448.22
2022-11-30T02:25:58.824Z,100446.88
2022-11-30T02:26:30.223Z,100456.41
2022-11-30T02:27:01.673Z,100453.63
2022-11-30T02:27:33.354Z,100447.38
2022-11-30T02:28:04.959Z,100446.00
2022-11-30T02:28:36.795Z,100443.56
2022-11-30T02:29:08.177Z,100453.41
2022-11-30T02:29:39.820Z,100440.28
2022-11-30T02:30:13.914Z,100440.81
2022-11-30T02:30:45.555Z,100444.09
2022-11-30T02:31:17.215Z,100443.00
2022-11-30T02:31:48.735Z,100449.03
2022-11-30T02:32:20.103Z,100440.56
2022-11-30T02:32:51.552Z,100446.59
2022-11-30T02:33:23.036Z,100445.19
2022-11-30T02:33:54.520Z,100448.50
2022-11-30T02:34:25.957Z,100450.66
2022-11-30T02:34:57.411Z,100444.38
2022-11-30T02:35:28.881Z,100443.84
2022-11-30T02:36:00.251Z,100444.94
2022-11-30T02:36:31.721Z,100437.84
2022-11-30T02:37:03.115Z,100439.75
2022-11-30T02:37:34.686Z,100437.53
2022-11-30T02:38:09.070Z,100443.28
2022-11-30T02:38:40.504Z,100445.44
2022-11-30T02:39:11.966Z,100438.34
2022-11-30T02:39:43.536Z,100439.97
2022-11-30T02:40:15.345Z,100441.38
2022-11-30T02:40:46.957Z,100436.44
2022-11-30T02:41:18.641Z,100442.44
2022-11-30T02:41:50.378Z,100437.53
2022-11-30T02:42:21.779Z,100443.25
2022-11-30T02:42:53.116Z,100445.72
2022-11-30T02:43:24.486Z,100450.34
2022-11-30T02:43:55.836Z,100435.28
2022-11-30T02:44:27.403Z,100439.97
2022-11-30T02:44:58.791Z,100447.91
2022-11-30T02:45:30.904Z,100447.06
2022-11-30T02:46:05.573Z,100439.16
2022-11-30T02:46:37.219Z,100447.38
2022-11-30T02:47:09.067Z,100443.28
2022-11-30T02:47:43.647Z,100440.81
2022-11-30T02:48:15.413Z,100441.38
2022-11-30T02:48:46.979Z,100445.19
2022-11-30T02:49:18.642Z,100444.91
2022-11-30T02:49:50.031Z,100441.91
2022-11-30T02:50:21.565Z,100445.22
2022-11-30T02:50:52.946Z,100443.31
2022-11-30T02:51:24.449Z,100450.66
2022-11-30T02:51:55.864Z,100446.59
2022-11-30T02:52:27.388Z,100448.50
2022-11-30T02:52:58.883Z,100443.56
2022-11-30T02:53:30.587Z,100451.19
2022-11-30T02:54:01.996Z,100455.31
2022-11-30T02:54:33.370Z,100450.94
2022-11-30T02:55:04.846Z,100453.94
2022-11-30T02:55:36.191Z,100451.75
2022-11-30T02:56:07.580Z,100446.00
2022-11-30T02:56:38.959Z,100451.75
2022-11-30T02:57:10.280Z,100450.66
2022-11-30T02:57:41.741Z,100453.09
2022-11-30T02:58:13.143Z,100456.66
2022-11-30T02:58:44.611Z,100456.69
2022-11-30T02:59:15.989Z,100455.31
2022-11-30T02:59:47.346Z,100452.81
2022-11-30T03:00:18.810Z,100459.94
2022-11-30T03:00:50.303Z,100457.50
2022-11-30T03:01:21.722Z,100452.03
2022-11-30T03:01:53.292Z,100458.88
2022-11-30T03:02:24.781Z,100454.50
2022-11-30T03:02:56.350Z,100457.19
2022-11-30T03:03:27.739Z,100456.13
2022-11-30T03:03:59.127Z,100455.28
2022-11-30T03:04:30.516Z,100454.22
2022-11-30T03:05:01.939Z,100454.47
2022-11-30T03:05:33.447Z,100461.31
2022-11-30T03:06:05.065Z,100451.19
2022-11-30T03:06:36.513Z,100458.81
2022-11-30T03:07:07.873Z,100455.03
2022-11-30T03:07:39.333Z,100446.59
2022-11-30T03:08:10.781Z,100458.84
2022-11-30T03:08:42.168Z,100456.41
2022-11-30T03:09:13.567Z,100457.78
2022-11-30T03:09:44.987Z,100456.38
2022-11-30T03:10:16.514Z,100459.38
2022-11-30T03:10:47.966Z,100463.22
2022-11-30T03:11:19.509Z,100458.56
2022-11-30T03:11:50.983Z,100453.63
2022-11-30T03:12:22.413Z,100461.03
2022-11-30T03:12:53.828Z,100460.19
2022-11-30T03:13:25.318Z,100463.22
2022-11-30T03:13:56.845Z,100461.31
2022-11-30T03:14:28.246Z,100462.66
2022-11-30T03:14:59.672Z,100466.75
2022-11-30T03:15:31.200Z,100468.97
2022-11-30T03:16:02.640Z,100459.41
2022-11-30T03:16:34.092Z,100470.31
2022-11-30T03:17:05.563Z,100462.69
2022-11-30T03:17:36.932Z,100469.22
2022-11-30T03:18:08.286Z,100470.59
2022-11-30T03:18:39.741Z,100472.22
2022-11-30T03:19:11.203Z,100469.75
2022-11-30T03:19:42.604Z,100468.94
2022-11-30T03:20:14.004Z,100474.06
2022-11-30T03:20:45.431Z,100468.06
2022-11-30T03:21:16.834Z,100471.09
2022-11-30T03:21:48.325Z,100473.28
2022-11-30T03:22:19.717Z,100469.22
2022-11-30T03:22:51.187Z,100470.03
2022-11-30T03:23:22.622Z,100470.84
2022-11-30T03:23:54.141Z,100473.84
2022-11-30T03:24:25.581Z,100466.75
2022-11-30T03:24:56.950Z,100472.75
2022-11-30T03:25:28.387Z,100471.41
2022-11-30T03:25:59.783Z,100470.59
2022-11-30T03:26:31.201Z,100470.06
2022-11-30T03:27:02.633Z,100467.63
2022-11-30T03:27:34.078Z,100466.47
2022-11-30T03:28:05.498Z,100468.94
2022-11-30T03:28:36.894Z,100467.31
2022-11-30T03:29:08.295Z,100465.66
2022-11-30T03:29:39.711Z,100468.69
2022-11-30T03:30:11.232Z,100464.59
2022-11-30T03:30:42.777Z,100469.25
2022-11-30T03:31:14.274Z,100468.44
2022-11-30T03:31:45.694Z,100471.13
2022-11-30T03:32:17.139Z,100467.00
2022-11-30T03:32:48.566Z,100462.41
2022-11-30T03:33:19.962Z,100472.75
2022-11-30T03:33:51.335Z,100472.75
2022-11-30T03:34:22.761Z,100466.75
2022-11-30T03:34:54.128Z,100470.91
2022-11-30T03:35:25.480Z,100473.91
2022-11-30T03:35:56.907Z,100468.16
2022-11-30T03:36:28.393Z,100464.88
2022-11-30T03:36:59.738Z,100465.69
2022-11-30T03:37:31.231Z,100466.22
2022-11-30T03:38:02.626Z,100471.13
2022-11-30T03:38:34.071Z,100472.47
2022-11-30T03:39:05.545Z,100469.22
2022-11-30T03:39:37.038Z,100471.13
2022-11-30T03:40:08.420Z,100478.50
2022-11-30T03:40:39.885Z,100476.88
2022-11-30T03:41:11.410Z,100476.59
2022-11-30T03:41:42.911Z,100478.22
2022-11-30T03:42:14.372Z,100472.50
2022-11-30T03:42:45.879Z,100474.44
2022-11-30T03:43:17.337Z,100469.25
2022-11-30T03:43:48.842Z,100473.03
2022-11-30T03:44:20.302Z,100468.69
2022-11-30T03:44:51.770Z,100479.88
2022-11-30T03:45:23.142Z,100474.97
2022-11-30T03:45:54.699Z,100474.16
2022-11-30T03:46:26.163Z,100479.59
2022-11-30T03:46:57.578Z,100479.03
2022-11-30T03:47:28.965Z,100477.16
2022-11-30T03:48:00.450Z,100477.97
2022-11-30T03:48:31.863Z,100474.72
2022-11-30T03:49:03.500Z,100482.88
2022-11-30T03:49:34.865Z,100480.13
2022-11-30T03:50:06.296Z,100486.13
2022-11-30T03:50:37.897Z,100482.88
2022-11-30T03:51:09.332Z,100491.91
2022-11-30T03:51:40.870Z,100490.53
2022-11-30T03:52:12.376Z,100490.53
2022-11-30T03:52:43.935Z,100487.22
2022-11-30T03:53:15.392Z,100488.88
2022-11-30T03:53:47.049Z,100488.06
2022-11-30T03:54:18.457Z,100492.97
2022-11-30T03:54:50.046Z,100489.44
2022-11-30T03:55:21.547Z,100492.16
2022-11-30T03:55:52.933Z,100492.16
2022-11-30T03:56:24.281Z,100485.59
2022-11-30T03:56:55.649Z,100492.16
2022-11-30T03:57:27.056Z,100497.38
2022-11-30T03:57:58.519Z,100490.28
2022-11-30T03:58:30.032Z,100487.56
2022-11-30T03:59:01.437Z,100487.53
2022-11-30T03:59:32.799Z,100491.34
2022-11-30T04:00:04.265Z,100488.34
2022-11-30T04:00:35.652Z,100493.25
2022-11-30T04:01:07.071Z,100496.00
2022-11-30T04:01:38.437Z,100488.88
2022-11-30T04:02:09.861Z,100491.59
2022-11-30T04:02:44.732Z,100496.25
2022-11-30T04:03:16.702Z,100500.88
2022-11-30T04:03:48.268Z,100495.72
2022-11-30T04:04:19.797Z,100496.53
2022-11-30T04:04:51.215Z,100498.44
2022-11-30T04:05:22.657Z,100494.63
2022-11-30T04:05:54.010Z,100493.25
2022-11-30T04:06:25.380Z,100495.72
2022-11-30T04:06:56.779Z,100501.47
2022-11-30T04:07:28.174Z,100498.44
2022-11-30T04:07:59.705Z,100493.25
2022-11-30T04:08:31.223Z,100493.25
2022-11-30T04:09:02.699Z,100495.72
2022-11-30T04:09:34.086Z,100495.19
2022-11-30T04:10:08.593Z,100495.44
2022-11-30T04:10:40.510Z,100491.59
2022-11-30T04:11:11.958Z,100499.53
2022-11-30T04:11:43.388Z,100498.44
2022-11-30T04:12:14.963Z,100498.16
2022-11-30T04:12:46.349Z,100500.63
2022-11-30T04:13:17.776Z,100492.44
2022-11-30T04:13:49.132Z,100497.09
2022-11-30T04:14:20.593Z,100500.34
2022-11-30T04:14:51.969Z,100498.44
2022-11-30T04:15:23.393Z,100495.44
2022-11-30T04:15:54.937Z,100500.34
2022-11-30T04:16:26.452Z,100493.53
2022-11-30T04:16:57.846Z,100503.66
2022-11-30T04:17:29.296Z,100505.56
2022-11-30T04:18:00.714Z,100503.66
2022-11-30T04:18:32.218Z,100508.31
2022-11-30T04:19:03.578Z,100497.66
2022-11-30T04:19:34.980Z,100501.78
2022-11-30T04:20:06.527Z,100498.47
2022-11-30T04:20:40.547Z,100501.50
2022-11-30T04:21:12.461Z,100501.22
2022-11-30T04:21:43.891Z,100503.66
2022-11-30T04:22:15.377Z,100505.56
2022-11-30T04:22:46.900Z,100500.63
2022-11-30T04:23:18.308Z,100506.34
2022-11-30T04:23:49.779Z,100501.47
2022-11-30T04:24:21.274Z,100496.81
2022-11-30T04:24:52.677Z,100510.72
2022-11-30T04:25:24.084Z,100504.19
2022-11-30T04:25:55.492Z,100505.53
2022-11-30T04:26:26.981Z,100503.09
2022-11-30T04:26:58.482Z,100509.09
2022-11-30T04:27:29.976Z,100509.91
2022-11-30T04:28:01.318Z,100508.28
2022-11-30T04:28:32.812Z,100504.72
2022-11-30T04:29:04.790Z,100508.84
2022-11-30T04:29:36.397Z,100503.38
2022-11-30T04:30:07.895Z,100500.88
2022-11-30T04:30:39.309Z,100510.19
2022-11-30T04:31:10.804Z,100508.56
2022-11-30T04:31:42.322Z,100504.75
2022-11-30T04:32:13.815Z,100507.47
2022-11-30T04:32:45.339Z,100506.91
2022-11-30T04:33:16.717Z,100508.28
2022-11-30T04:33:48.285Z,100504.44
2022-11-30T04:34:19.833Z,100499.78
2022-11-30T04:34:51.288Z,100500.63
2022-11-30T04:35:22.717Z,100504.16
2022-11-30T04:35:54.122Z,100503.63
2022-11-30T04:36:25.549Z,100506.34
2022-11-30T04:37:00.222Z,100509.38
2022-11-30T04:37:32.012Z,100516.19
2022-11-30T04:38:03.655Z,100507.72
2022-11-30T04:38:35.198Z,100511.56
2022-11-30T04:39:06.530Z,100512.63
2022-11-30T04:39:37.923Z,100509.69
2022-11-30T04:40:09.313Z,100517.84
2022-11-30T04:40:40.737Z,100514.56
2022-11-30T04:41:12.318Z,100514.00
2022-11-30T04:41:43.887Z,100512.09
2022-11-30T04:42:15.366Z,100518.94
2022-11-30T04:42:46.834Z,100523.88
2022-11-30T04:43:18.253Z,100515.69
2022-11-30T04:43:49.625Z,100510.22
2022-11-30T04:44:20.993Z,100514.56
2022-11-30T04:44:52.366Z,100517.31
2022-11-30T04:45:23.778Z,100517.84
2022-11-30T04:45:55.162Z,100519.47
2022-11-30T04:46:26.608Z,100518.66
2022-11-30T04:46:58.228Z,100518.09
2022-11-30T04:47:29.771Z,100517.03
2022-11-30T04:48:01.285Z,100514.56
2022-11-30T04:48:32.689Z,100517.84
2022-11-30T04:49:04.159Z,100521.66
2022-11-30T04:49:35.576Z,100521.13
2022-11-30T04:50:06.932Z,100519.22
2022-11-30T04:50:38.326Z,100516.47
2022-11-30T04:51:09.764Z,100520.00
2022-11-30T04:51:41.127Z,100519.19
2022-11-30T04:52:12.647Z,100514.84
2022-11-30T04:52:44.181Z,100517.56
2022-11-30T04:53:15.570Z,100517.06
2022-11-30T04:53:46.867Z,100517.88
2022-11-30T04:54:18.261Z,100518.13
2022-11-30T04:54:49.963Z,100520.81
2022-11-30T04:55:21.434Z,100519.75
2022-11-30T04:55:52.810Z,100520.81
2022-11-30T04:56:24.204Z,100526.56
2022-11-30T04:56:55.578Z,100518.91
2022-11-30T04:57:27.002Z,100511.00
2022-11-30T04:57:58.387Z,100522.22
2022-11-30T04:58:29.783Z,100512.94
2022-11-30T04:59:01.300Z,100516.25
2022-11-30T04:59:32.712Z,100516.25
2022-11-30T05:00:04.156Z,100521.13
2022-11-30T05:00:35.582Z,100521.69
2022-11-30T05:01:06.990Z,100523.91
2022-11-30T05:01:38.339Z,100520.59
2022-11-30T05:02:09.861Z,100523.09
2022-11-30T05:02:41.442Z,100522.78
2022-11-30T05:03:12.980Z,100521.41
2022-11-30T05:03:44.438Z,100524.13
2022-11-30T05:04:15.889Z,100529.63
2022-11-30T05:04:47.628Z,100527.13
2022-11-30T05:05:19.255Z,100523.34
2022-11-30T05:05:50.619Z,100528.22
2022-11-30T05:06:21.970Z,100516.50
2022-11-30T05:06:53.352Z,100523.03
2022-11-30T05:07:24.845Z,100524.13
2022-11-30T05:07:56.375Z,100531.75
2022-11-30T05:08:27.875Z,100522.78
2022-11-30T05:08:59.251Z,100527.13
2022-11-30T05:09:30.657Z,100527.13
2022-11-30T05:10:01.971Z,100528.50
2022-11-30T05:10:33.369Z,100517.28
2022-11-30T05:11:04.725Z,100529.59
2022-11-30T05:11:36.088Z,100524.94
2022-11-30T05:12:07.523Z,100523.56
2022-11-30T05:12:38.928Z,100525.47
2022-11-30T05:13:10.408Z,100522.22
2022-11-30T05:13:41.808Z,100525.75
2022-11-30T05:14:13.209Z,100526.56
2022-11-30T05:14:44.576Z,100525.22
2022-11-30T05:15:15.984Z,100523.59
2022-11-30T05:15:47.425Z,100529.88
2022-11-30T05:16:18.922Z,100525.22
2022-11-30T05:16:50.314Z,100524.66
2022-11-30T05:17:21.726Z,100527.13
2022-11-30T05:17:53.099Z,100527.94
2022-11-30T05:18:24.552Z,100530.94
2022-11-30T05:18:56.091Z,100523.84
2022-11-30T05:19:27.500Z,100530.41
2022-11-30T05:19:58.933Z,100519.47
2022-11-30T05:20:30.427Z,100524.94
2022-11-30T05:21:01.814Z,100524.94
2022-11-30T05:21:33.236Z,100529.06
2022-11-30T05:22:04.787Z,100529.03
2022-11-30T05:22:36.202Z,100530.41
2022-11-30T05:23:07.657Z,100530.69
2022-11-30T05:23:39.068Z,100526.56
2022-11-30T05:24:10.550Z,100532.03
2022-11-30T05:24:41.956Z,100535.84
2022-11-30T05:25:13.341Z,100528.75
2022-11-30T05:25:44.751Z,100530.41
2022-11-30T05:26:16.165Z,100535.88
2022-11-30T05:26:47.587Z,100530.97
2022-11-30T05:27:22.559Z,100530.69
2022-11-30T05:27:54.270Z,100533.72
2022-11-30T05:28:25.622Z,100533.72
2022-11-30T05:28:57.077Z,100537.00
2022-11-30T05:29:28.480Z,100531.25
2022-11-30T05:29:59.966Z,100542.97
2022-11-30T05:30:31.362Z,100535.59
2022-11-30T05:31:02.807Z,100538.03
2022-11-30T05:31:34.362Z,100535.06
2022-11-30T05:32:05.889Z,100531.75
2022-11-30T05:32:37.314Z,100542.97
2022-11-30T05:33:08.667Z,100534.22
2022-11-30T05:33:40.080Z,100535.31
2022-11-30T05:34:11.565Z,100540.78
2022-11-30T05:34:50.641Z,100537.25
2022-11-30T05:35:22.921Z,100531.50
2022-11-30T05:35:54.352Z,100532.03
2022-11-30T05:36:25.762Z,100542.72
2022-11-30T05:36:57.133Z,100540.25
2022-11-30T05:37:28.531Z,100542.72
2022-11-30T05:37:59.923Z,100539.97
2022-11-30T05:38:31.384Z,100543.53
2022-11-30T05:39:02.775Z,100540.78
2022-11-30T05:39:34.217Z,100543.00
2022-11-30T05:40:05.619Z,100535.59
2022-11-30T05:40:37.019Z,100542.44
2022-11-30T05:41:08.602Z,100532.59
2022-11-30T05:41:40.001Z,100538.88
2022-11-30T05:42:11.376Z,100538.88
2022-11-30T05:42:42.761Z,100536.44
2022-11-30T05:43:14.221Z,100540.03
2022-11-30T05:43:45.747Z,100534.84
2022-11-30T05:44:17.155Z,100535.66
2022-11-30T05:44:48.823Z,100542.19
2022-11-30T05:45:20.360Z,100538.91
2022-11-30T05:45:51.757Z,100536.44
2022-11-30T05:46:23.140Z,100539.19
2022-11-30T05:46:54.684Z,100539.44
2022-11-30T05:47:26.082Z,100545.44
2022-11-30T05:47:57.530Z,100538.06
2022-11-30T05:48:28.949Z,100541.59
2022-11-30T05:49:00.399Z,100542.72
2022-11-30T05:49:31.730Z,100533.97
2022-11-30T05:50:03.157Z,100535.31
2022-11-30T05:50:34.660Z,100537.50
2022-11-30T05:51:06.009Z,100539.69
2022-11-30T05:51:37.403Z,100534.50
2022-11-30T05:52:08.822Z,100537.81
2022-11-30T05:52:40.190Z,100533.72
2022-11-30T05:53:11.557Z,100533.47
2022-11-30T05:53:42.962Z,100537.53
2022-11-30T05:54:14.423Z,100529.34
2022-11-30T05:54:46.089Z,100535.09
2022-11-30T05:55:17.723Z,100534.53
2022-11-30T05:55:49.140Z,100533.16
2022-11-30T05:56:20.553Z,100535.88
2022-11-30T05:56:55.098Z,100535.63
2022-11-30T05:57:26.911Z,100532.59
2022-11-30T05:57:58.270Z,100535.59
2022-11-30T05:58:29.723Z,100536.44
2022-11-30T05:59:01.125Z,100532.59
2022-11-30T05:59:32.625Z,100537.25